Time;durP1;ratioP1;P1;durP2;ratioP2;P2;SDS_P1;SDS_P2;PMS_P1;PMS_P2;Temp;Humidity;BMP_temperature;BMP_pressure;BME280_temperature;BME280_humidity;BME280_pressure;Samples;Min_cycle;Max_cycle;Signal;HPM_P1;HPM_P2
2023/09/11 00:02:22;;;;;;;0.60;0.60;;;19.10;99.90;;;;;;4414341;32;20410;-66
2023/09/11 00:04:47;;;;;;;2.00;1.23;;;19.10;99.90;;;;;;4415544;32;20093;-66
2023/09/11 00:07:14;;;;;;;0.62;0.62;;;19.20;99.90;;;;;;4412858;32;20066;-66
2023/09/11 00:09:39;;;;;;;0.80;0.80;;;19.30;99.90;;;;;;4412724;32;20512;-66
2023/09/11 00:12:05;;;;;;;0.50;0.50;;;19.40;99.90;;;;;;4412274;32;20096;-66
2023/09/11 00:14:31;;;;;;;2.22;0.98;;;19.40;99.90;;;;;;4412183;32;20097;-66
2023/09/11 00:16:56;;;;;;;6.47;1.20;;;19.40;99.90;;;;;;4412444;32;20113;-66
2023/09/11 00:19:22;;;;;;;3.25;0.95;;;19.40;99.90;;;;;;4414209;32;20074;-66
2023/09/11 00:21:47;;;;;;;1.02;0.93;;;19.30;99.90;;;;;;4414258;32;20073;-66
2023/09/11 00:24:13;;;;;;;6.10;0.98;;;19.20;99.90;;;;;;4414949;32;21089;-65
2023/09/11 00:26:38;;;;;;;1.00;0.95;;;19.10;99.90;;;;;;4412242;32;20069;-66
2023/09/11 00:29:04;;;;;;;0.52;0.52;;;19.00;99.90;;;;;;4412728;32;20101;-66
2023/09/11 00:31:29;;;;;;;0.55;0.55;;;19.00;99.90;;;;;;4415997;32;20081;-66
2023/09/11 00:33:54;;;;;;;2.67;0.75;;;19.00;99.90;;;;;;4417601;32;20128;-66
2023/09/11 00:36:20;;;;;;;0.93;0.65;;;19.00;99.90;;;;;;4416231;32;20094;-66
2023/09/11 00:38:47;;;;;;;2.67;1.15;;;19.10;99.90;;;;;;4414902;32;20191;-66
2023/09/11 00:41:13;;;;;;;0.80;0.80;;;19.10;99.90;;;;;;4412705;32;20097;-66
2023/09/11 00:43:38;;;;;;;0.60;0.60;;;19.00;99.90;;;;;;4415105;32;20057;-66
2023/09/11 00:46:05;;;;;;;1.58;0.98;;;18.80;99.90;;;;;;4412070;32;20070;-65
2023/09/11 00:48:31;;;;;;;1.27;0.85;;;18.80;99.90;;;;;;4415463;32;20711;-66
2023/09/11 00:50:57;;;;;;;1.35;0.62;;;18.80;99.90;;;;;;4411692;32;20072;-66
2023/09/11 00:53:24;;;;;;;0.75;0.75;;;18.80;99.90;;;;;;4417171;32;20056;-65
2023/09/11 00:55:49;;;;;;;1.30;0.80;;;18.90;99.90;;;;;;4415825;32;20117;-65
2023/09/11 00:58:16;;;;;;;3.03;0.70;;;18.80;99.90;;;;;;4413603;32;20660;-64
2023/09/11 01:00:46;;;;;;;1.45;0.95;;;18.90;99.90;;;;;;4415359;32;20125;-66
2023/09/11 01:03:12;;;;;;;0.57;0.57;;;18.90;99.90;;;;;;4412081;32;20100;-66
2023/09/11 01:05:38;;;;;;;0.98;0.65;;;18.90;99.90;;;;;;4412209;32;20159;-66
2023/09/11 01:08:04;;;;;;;4.05;1.23;;;18.90;99.90;;;;;;4412034;32;20835;-67
2023/09/11 01:10:30;;;;;;;0.60;0.60;;;18.90;99.90;;;;;;4413978;32;20152;-66
2023/09/11 01:12:55;;;;;;;3.33;0.90;;;18.90;99.90;;;;;;4411624;32;20496;-66
2023/09/11 01:15:23;;;;;;;0.68;0.68;;;18.90;99.90;;;;;;4414636;32;20162;-66
2023/09/11 01:18:17;;;;;;;1.05;0.90;;;18.80;99.90;;;;;;4415053;32;20061;-66
2023/09/11 01:20:56;;;;;;;1.02;0.93;;;18.70;99.90;;;;;;4412843;32;20094;-66
2023/09/11 01:23:34;;;;;;;1.00;0.80;;;18.80;99.90;;;;;;4414124;32;20066;-66
2023/09/11 01:26:31;;;;;;;4.50;0.88;;;18.70;99.90;;;;;;4412897;32;20129;-66
2023/09/11 01:29:18;;;;;;;0.52;0.52;;;18.60;99.90;;;;;;4399624;32;20093;-65
2023/09/11 01:31:44;;;;;;;0.62;0.60;;;18.60;99.90;;;;;;4404856;32;22033;-65
2023/09/11 01:34:10;;;;;;;1.35;1.05;;;18.60;99.90;;;;;;4411401;32;20517;-66
2023/09/11 01:36:35;;;;;;;1.25;1.08;;;18.70;99.90;;;;;;4413271;32;20066;-66
2023/09/11 01:39:01;;;;;;;2.25;1.20;;;18.70;99.90;;;;;;4409691;32;20081;-66
2023/09/11 01:41:33;;;;;;;0.73;0.73;;;18.70;99.90;;;;;;4411668;32;20069;-66
2023/09/11 01:44:03;;;;;;;2.05;0.95;;;18.70;99.90;;;;;;4416468;32;20415;-66
2023/09/11 01:46:29;;;;;;;0.67;0.63;;;18.60;99.90;;;;;;4414547;32;20109;-66
2023/09/11 01:48:56;;;;;;;2.40;0.60;;;18.60;99.90;;;;;;4412664;32;20165;-67
2023/09/11 01:51:24;;;;;;;0.75;0.75;;;18.60;99.90;;;;;;4413614;32;20074;-66
2023/09/11 01:53:50;;;;;;;1.00;0.93;;;18.50;99.90;;;;;;4415008;32;20442;-66
2023/09/11 01:56:15;;;;;;;2.05;0.95;;;18.50;99.90;;;;;;4412274;32;20572;-66
2023/09/11 01:58:43;;;;;;;1.20;1.08;;;18.50;99.90;;;;;;4410862;32;20077;-66
2023/09/11 02:01:09;;;;;;;1.87;0.88;;;18.40;99.90;;;;;;4411934;32;20069;-66
2023/09/11 02:03:34;;;;;;;0.80;0.80;;;18.50;99.90;;;;;;4412676;32;20069;-64
2023/09/11 02:06:00;;;;;;;0.70;0.70;;;18.50;99.90;;;;;;4416333;32;20096;-65
2023/09/11 02:08:26;;;;;;;3.05;1.10;;;18.50;99.90;;;;;;4415848;32;20173;-64
2023/09/11 02:10:53;;;;;;;2.85;0.85;;;18.50;99.90;;;;;;4415068;32;20169;-64
2023/09/11 02:13:19;;;;;;;0.90;0.75;;;18.50;99.90;;;;;;4414235;32;20077;-64
2023/09/11 02:15:45;;;;;;;2.05;0.88;;;18.40;99.90;;;;;;4413713;32;20315;-63
2023/09/11 02:18:10;;;;;;;0.55;0.55;;;18.30;99.90;;;;;;4398414;32;20084;-64
2023/09/11 02:20:35;;;;;;;0.60;0.60;;;18.20;99.90;;;;;;4414822;32;20402;-65
2023/09/11 02:23:01;;;;;;;0.50;0.50;;;18.20;99.90;;;;;;4415160;32;20085;-64
2023/09/11 02:25:27;;;;;;;0.65;0.65;;;18.10;99.90;;;;;;4415720;32;20062;-65
2023/09/11 02:27:52;;;;;;;1.42;1.00;;;18.20;99.90;;;;;;4412054;32;20095;-65
2023/09/11 02:30:17;;;;;;;2.40;1.25;;;18.20;99.90;;;;;;4413883;32;20069;-65
2023/09/11 02:32:43;;;;;;;2.22;1.25;;;18.20;99.90;;;;;;4414192;32;20263;-64
2023/09/11 02:35:08;;;;;;;1.08;0.95;;;18.20;99.90;;;;;;4416770;32;20089;-66
2023/09/11 02:37:34;;;;;;;2.08;1.23;;;18.00;99.90;;;;;;4414149;32;20529;-66
2023/09/11 02:39:59;;;;;;;0.40;0.40;;;18.00;99.90;;;;;;4413897;32;20520;-66
2023/09/11 02:42:25;;;;;;;0.82;0.70;;;18.00;99.90;;;;;;4413082;32;20140;-66
2023/09/11 02:44:50;;;;;;;0.90;0.73;;;18.00;99.90;;;;;;4412890;32;20423;-66
2023/09/11 02:47:16;;;;;;;0.77;0.65;;;18.00;99.90;;;;;;4411170;32;20552;-66
2023/09/11 02:49:41;;;;;;;1.35;0.85;;;18.00;99.90;;;;;;4413299;32;20172;-66
2023/09/11 02:52:07;;;;;;;0.70;0.70;;;18.00;99.90;;;;;;4413425;32;20166;-66
2023/09/11 02:54:32;;;;;;;4.80;0.90;;;17.90;99.90;;;;;;4415970;32;20446;-66
2023/09/11 02:56:58;;;;;;;0.43;0.43;;;17.80;99.90;;;;;;4417543;32;20517;-67
2023/09/11 02:59:23;;;;;;;0.93;0.65;;;17.80;99.90;;;;;;4412983;32;20093;-66
2023/09/11 03:01:49;;;;;;;0.50;0.50;;;17.90;99.90;;;;;;4414402;32;20129;-66
2023/09/11 03:04:14;;;;;;;11.05;1.50;;;17.90;99.90;;;;;;4413408;32;20078;-66
2023/09/11 03:06:40;;;;;;;1.55;1.02;;;17.80;99.90;;;;;;4411131;32;20138;-66
2023/09/11 03:09:05;;;;;;;2.03;1.30;;;17.70;99.90;;;;;;4411872;32;20077;-65
2023/09/11 03:11:31;;;;;;;1.70;0.82;;;17.70;99.90;;;;;;4415528;32;20073;-66
2023/09/11 03:13:56;;;;;;;2.00;1.35;;;17.80;99.90;;;;;;4414177;32;20409;-64
2023/09/11 03:16:22;;;;;;;1.90;0.80;;;17.80;99.90;;;;;;4414399;32;20133;-64
2023/09/11 03:18:47;;;;;;;1.67;0.90;;;17.90;99.90;;;;;;4414072;32;20511;-64
2023/09/11 03:21:13;;;;;;;0.85;0.77;;;17.80;99.90;;;;;;4412333;32;20095;-64
2023/09/11 03:23:39;;;;;;;2.90;0.93;;;17.70;99.90;;;;;;4415297;32;20077;-64
2023/09/11 03:26:12;;;;;;;0.85;0.77;;;17.80;99.90;;;;;;4413621;32;20132;-65
2023/09/11 03:28:38;;;;;;;0.65;0.62;;;17.70;99.90;;;;;;4411938;32;20459;-65
2023/09/11 03:31:03;;;;;;;0.85;0.85;;;17.70;99.90;;;;;;4415243;32;20069;-65
2023/09/11 03:33:29;;;;;;;15.32;0.95;;;17.80;99.90;;;;;;4420158;32;20473;-67
2023/09/11 03:35:54;;;;;;;0.88;0.70;;;17.80;99.90;;;;;;4416898;32;20069;-64
2023/09/11 03:38:20;;;;;;;0.93;0.82;;;17.70;99.90;;;;;;4414926;32;20188;-64
2023/09/11 03:40:46;;;;;;;1.23;0.93;;;17.70;99.90;;;;;;4416563;32;20102;-64
2023/09/11 03:43:12;;;;;;;2.92;0.93;;;17.60;99.90;;;;;;4401789;32;20078;-65
2023/09/11 03:45:38;;;;;;;1.17;0.73;;;17.60;99.90;;;;;;4400887;32;20117;-65
2023/09/11 03:48:04;;;;;;;1.52;0.90;;;17.70;99.90;;;;;;4415964;32;20102;-66
2023/09/11 03:50:29;;;;;;;1.00;0.77;;;17.70;99.90;;;;;;4415397;32;20094;-65
2023/09/11 03:52:55;;;;;;;1.52;0.88;;;17.60;99.90;;;;;;4416089;32;20077;-65
2023/09/11 03:55:20;;;;;;;0.50;0.50;;;17.60;99.90;;;;;;4413691;32;20107;-65
2023/09/11 03:57:46;;;;;;;0.90;0.62;;;17.50;99.90;;;;;;4419309;32;20196;-65
2023/09/11 04:00:12;;;;;;;1.62;1.00;;;17.50;99.90;;;;;;4415392;32;20143;-65
2023/09/11 04:02:38;;;;;;;1.10;0.77;;;17.50;99.90;;;;;;4417481;32;20651;-66
2023/09/11 04:05:04;;;;;;;0.80;0.80;;;17.60;99.90;;;;;;4402517;32;20069;-65
2023/09/11 04:07:32;;;;;;;1.08;0.62;;;17.60;99.90;;;;;;4415819;32;20089;-65
2023/09/11 04:09:57;;;;;;;1.40;1.02;;;17.60;99.90;;;;;;4414874;32;20074;-65
2023/09/11 04:12:23;;;;;;;1.75;1.10;;;17.70;99.90;;;;;;4417993;32;20082;-65
2023/09/11 04:14:49;;;;;;;11.15;2.25;;;17.60;99.90;;;;;;4414195;32;20069;-65
2023/09/11 04:17:14;;;;;;;12.95;1.65;;;17.60;99.90;;;;;;4416406;32;20077;-65
2023/09/11 04:19:40;;;;;;;2.65;1.08;;;17.60;99.90;;;;;;4414687;32;20069;-65
2023/09/11 04:22:06;;;;;;;2.17;1.27;;;17.50;99.90;;;;;;4412688;32;20515;-65
2023/09/11 04:24:31;;;;;;;1.50;0.73;;;17.50;99.90;;;;;;4416537;32;20102;-66
2023/09/11 04:26:57;;;;;;;0.75;0.75;;;17.40;99.90;;;;;;4416130;32;20399;-66
2023/09/11 04:29:24;;;;;;;1.65;0.90;;;17.50;99.90;;;;;;4416982;32;20062;-66
2023/09/11 04:31:49;;;;;;;1.27;0.70;;;17.50;99.90;;;;;;4416084;32;20061;-66
2023/09/11 04:34:15;;;;;;;2.05;1.00;;;17.40;99.90;;;;;;4416574;32;20725;-67
2023/09/11 04:36:41;;;;;;;0.70;0.70;;;17.40;99.90;;;;;;4415931;32;20113;-66
2023/09/11 04:39:06;;;;;;;0.77;0.77;;;17.50;99.90;;;;;;4417643;32;20190;-66
2023/09/11 04:41:32;;;;;;;3.37;1.92;;;17.50;99.90;;;;;;4414281;32;20086;-65
2023/09/11 04:43:57;;;;;;;1.70;1.15;;;17.40;99.90;;;;;;4414901;32;20509;-65
2023/09/11 04:46:23;;;;;;;4.12;1.33;;;17.40;99.90;;;;;;4409545;32;20135;-66
2023/09/11 04:48:48;;;;;;;1.90;1.12;;;17.50;99.90;;;;;;4414330;32;20128;-67
2023/09/11 04:51:13;;;;;;;2.45;1.73;;;17.50;99.90;;;;;;4412350;32;20128;-67
2023/09/11 04:53:39;;;;;;;0.80;0.70;;;17.40;99.90;;;;;;4418509;32;20508;-66
2023/09/11 04:56:04;;;;;;;0.70;0.70;;;17.40;99.90;;;;;;4417837;32;20064;-66
2023/09/11 04:58:30;;;;;;;11.30;1.20;;;17.30;99.90;;;;;;4414346;32;20110;-66
2023/09/11 05:00:55;;;;;;;1.55;0.68;;;17.30;99.90;;;;;;4410869;32;20570;-66
2023/09/11 05:03:21;;;;;;;3.03;1.70;;;17.40;99.90;;;;;;4410416;32;20094;-66
2023/09/11 05:05:49;;;;;;;4.37;1.48;;;17.30;99.90;;;;;;4416069;32;20805;-64
2023/09/11 05:08:14;;;;;;;1.42;1.23;;;17.20;99.90;;;;;;4410428;32;20595;-64
2023/09/11 05:10:42;;;;;;;1.62;0.98;;;17.20;99.90;;;;;;4412367;32;20562;-64
2023/09/11 05:13:07;;;;;;;2.08;1.05;;;17.20;99.90;;;;;;4395193;32;20628;-64
2023/09/11 05:15:33;;;;;;;4.97;0.90;;;17.30;99.90;;;;;;4417268;32;20066;-65
2023/09/11 05:17:58;;;;;;;8.68;1.52;;;17.30;99.90;;;;;;4398816;32;20418;-65
2023/09/11 05:20:24;;;;;;;0.85;0.65;;;17.30;99.90;;;;;;4402201;32;20167;-65
2023/09/11 05:22:49;;;;;;;1.58;1.05;;;17.30;99.90;;;;;;4407560;32;20136;-65
2023/09/11 05:25:16;;;;;;;0.70;0.70;;;17.30;99.90;;;;;;4410512;32;20086;-66
2023/09/11 05:27:45;;;;;;;2.00;1.33;;;17.30;99.90;;;;;;4395262;32;20378;-65
2023/09/11 05:30:11;;;;;;;0.80;0.80;;;17.30;99.90;;;;;;4397151;32;20662;-67
2023/09/11 05:32:36;;;;;;;0.88;0.75;;;17.50;99.90;;;;;;4388363;32;20088;-65
2023/09/11 05:35:04;;;;;;;0.70;0.70;;;17.60;99.90;;;;;;4407665;32;20579;-66
2023/09/11 05:37:30;;;;;;;5.30;2.15;;;17.60;99.90;;;;;;4403446;32;20553;-66
2023/09/11 05:39:58;;;;;;;0.80;0.80;;;17.60;99.90;;;;;;4403322;32;20070;-66
2023/09/11 05:42:25;;;;;;;3.95;1.87;;;17.60;99.90;;;;;;4403174;32;20077;-66
2023/09/11 05:44:50;;;;;;;3.10;1.05;;;17.70;99.90;;;;;;4395438;32;20081;-66
2023/09/11 05:47:16;;;;;;;1.45;0.90;;;17.70;99.90;;;;;;4403571;32;20138;-66
2023/09/11 05:49:42;;;;;;;3.05;1.35;;;17.80;99.90;;;;;;4397138;32;20809;-65
2023/09/11 05:52:07;;;;;;;0.50;0.50;;;17.90;99.90;;;;;;4396103;32;20358;-65
2023/09/11 05:54:34;;;;;;;0.80;0.80;;;18.10;99.90;;;;;;4390116;32;20105;-65
2023/09/11 05:57:02;;;;;;;1.00;0.70;;;18.20;99.90;;;;;;4379320;32;20089;-65
2023/09/11 05:59:27;;;;;;;2.17;1.10;;;18.30;99.90;;;;;;4375480;32;20144;-66
2023/09/11 06:01:53;;;;;;;2.40;1.23;;;18.40;99.90;;;;;;4368470;32;20308;-65
2023/09/11 06:04:18;;;;;;;1.15;0.80;;;18.50;99.90;;;;;;4367757;32;20122;-65
2023/09/11 06:06:44;;;;;;;5.03;1.85;;;18.50;99.90;;;;;;4367723;32;20109;-66
2023/09/11 06:09:09;;;;;;;0.40;0.40;;;18.60;99.90;;;;;;4383249;32;20085;-66
2023/09/11 06:11:35;;;;;;;8.10;2.22;;;18.70;99.90;;;;;;4377848;32;20649;-66
2023/09/11 06:14:01;;;;;;;1.05;0.95;;;18.80;99.90;;;;;;4384676;32;20727;-65
2023/09/11 06:16:27;;;;;;;1.15;0.80;;;18.80;99.90;;;;;;4384486;32;20101;-65
2023/09/11 06:18:53;;;;;;;0.98;0.82;;;18.90;99.90;;;;;;4389083;32;20359;-65
2023/09/11 06:21:18;;;;;;;1.23;0.75;;;19.00;99.90;;;;;;4382669;32;20850;-65
2023/09/11 06:23:44;;;;;;;3.45;0.80;;;19.10;99.90;;;;;;4384791;32;20187;-65
2023/09/11 06:26:10;;;;;;;1.20;0.77;;;19.20;99.90;;;;;;4382848;32;20155;-65
2023/09/11 06:28:35;;;;;;;1.02;0.93;;;19.20;99.90;;;;;;4385665;32;20106;-65
2023/09/11 06:31:01;;;;;;;1.42;1.00;;;19.30;99.90;;;;;;4390899;32;20125;-66
2023/09/11 06:33:27;;;;;;;0.60;0.60;;;19.40;99.90;;;;;;4385703;32;20214;-64
2023/09/11 06:35:54;;;;;;;1.75;0.98;;;19.50;99.90;;;;;;4377974;32;20579;-66
2023/09/11 06:38:19;;;;;;;1.02;0.90;;;19.60;99.90;;;;;;4384623;32;20082;-66
2023/09/11 06:40:45;;;;;;;0.88;0.60;;;19.70;99.90;;;;;;4386711;32;20104;-65
2023/09/11 06:43:10;;;;;;;0.77;0.75;;;19.90;99.90;;;;;;4385102;32;20477;-65
2023/09/11 06:45:36;;;;;;;0.50;0.50;;;20.00;99.90;;;;;;4386871;32;20106;-64
2023/09/11 06:48:02;;;;;;;0.65;0.65;;;20.10;99.90;;;;;;4375207;32;20212;-66
2023/09/11 06:50:28;;;;;;;0.70;0.65;;;20.20;99.90;;;;;;4380385;32;20066;-65
2023/09/11 06:52:53;;;;;;;3.85;0.65;;;20.30;99.90;;;;;;4380235;32;20204;-66
2023/09/11 06:55:19;;;;;;;2.58;0.57;;;20.40;99.90;;;;;;4375674;32;20310;-66
2023/09/11 06:57:56;;;;;;;1.95;0.70;;;20.50;99.90;;;;;;4377055;32;20069;-64
2023/09/11 07:00:22;;;;;;;0.95;0.88;;;20.60;99.90;;;;;;4362585;32;20582;-65
2023/09/11 07:02:49;;;;;;;3.25;1.33;;;20.70;99.90;;;;;;4383947;32;20093;-65
2023/09/11 07:05:16;;;;;;;0.98;0.55;;;20.80;99.90;;;;;;4371564;32;20577;-65
2023/09/11 07:07:42;;;;;;;2.47;0.68;;;20.80;99.90;;;;;;4380898;32;20093;-65
2023/09/11 07:10:11;;;;;;;4.00;1.60;;;20.90;99.90;;;;;;4360197;32;20658;-65
2023/09/11 07:12:37;;;;;;;0.90;0.90;;;21.10;99.90;;;;;;4366261;32;20152;-65
2023/09/11 07:15:03;;;;;;;0.80;0.80;;;21.10;99.90;;;;;;4389477;32;20089;-65
2023/09/11 07:17:29;;;;;;;1.02;0.95;;;21.20;99.90;;;;;;4386289;32;20106;-65
2023/09/11 07:19:54;;;;;;;1.27;0.80;;;21.30;99.90;;;;;;4393835;32;20101;-64
2023/09/11 07:22:20;;;;;;;2.53;1.20;;;21.40;99.90;;;;;;4387391;32;20793;-63
2023/09/11 07:24:45;;;;;;;0.50;0.50;;;21.50;99.90;;;;;;4388895;32;20081;-64
2023/09/11 07:27:11;;;;;;;0.50;0.50;;;21.50;99.90;;;;;;4388333;32;20085;-64
2023/09/11 07:29:37;;;;;;;0.93;0.55;;;21.60;99.90;;;;;;4378591;32;20607;-64
2023/09/11 07:32:02;;;;;;;0.60;0.60;;;21.70;99.90;;;;;;4359300;32;21693;-65
2023/09/11 07:34:29;;;;;;;1.02;0.95;;;21.80;99.90;;;;;;4359449;32;20702;-63
2023/09/11 07:36:54;;;;;;;0.40;0.40;;;21.90;99.90;;;;;;4378011;32;20314;-64
2023/09/11 07:39:20;;;;;;;0.90;0.75;;;21.90;99.90;;;;;;4380986;32;20171;-62
2023/09/11 07:41:47;;;;;;;7.50;0.77;;;22.00;99.90;;;;;;4387332;32;20574;-64
2023/09/11 07:44:13;;;;;;;0.73;0.73;;;22.10;99.90;;;;;;4386043;32;20125;-64
2023/09/11 07:46:39;;;;;;;1.67;0.95;;;22.20;99.90;;;;;;4377435;32;20101;-64
2023/09/11 07:49:04;;;;;;;0.65;0.50;;;22.30;99.90;;;;;;4367686;32;20118;-65
2023/09/11 07:51:30;;;;;;;4.12;0.88;;;22.30;99.90;;;;;;4364546;32;20184;-65
2023/09/11 07:53:56;;;;;;;4.50;0.70;;;22.40;99.90;;;;;;4369374;32;20340;-65
2023/09/11 07:56:22;;;;;;;1.45;0.95;;;22.50;99.90;;;;;;4372402;32;20113;-65
2023/09/11 07:58:50;;;;;;;0.55;0.47;;;22.60;99.90;;;;;;4387203;32;20153;-65
2023/09/11 08:01:16;;;;;;;1.45;0.60;;;22.70;99.90;;;;;;4372478;32;20118;-65
2023/09/11 08:03:41;;;;;;;1.40;1.08;;;22.70;99.90;;;;;;4369341;32;20086;-65
2023/09/11 08:06:07;;;;;;;0.57;0.57;;;22.80;99.90;;;;;;4386408;32;20105;-64
2023/09/11 08:08:32;;;;;;;0.85;0.70;;;22.90;99.90;;;;;;4395299;32;20940;-65
2023/09/11 08:10:58;;;;;;;0.57;0.57;;;22.90;99.90;;;;;;4396888;32;20097;-63
2023/09/11 08:13:24;;;;;;;1.23;0.70;;;23.10;99.90;;;;;;4390315;32;20129;-66
2023/09/11 08:15:50;;;;;;;1.02;0.70;;;23.20;99.90;;;;;;4400286;32;20069;-65
2023/09/11 08:18:15;;;;;;;1.33;1.10;;;23.30;99.90;;;;;;4400491;32;20263;-65
2023/09/11 08:20:45;;;;;;;0.60;0.60;;;23.50;99.90;;;;;;4395146;32;20113;-64
2023/09/11 08:23:11;;;;;;;0.67;0.50;;;23.60;99.90;;;;;;4361516;32;20085;-65
2023/09/11 08:25:36;;;;;;;0.80;0.80;;;23.70;99.90;;;;;;4372699;32;20239;-65
2023/09/11 08:28:02;;;;;;;0.45;0.45;;;23.90;99.90;;;;;;4381188;32;20116;-64
2023/09/11 08:30:27;;;;;;;4.55;0.80;;;23.90;99.90;;;;;;4372738;32;20086;-65
2023/09/11 08:32:53;;;;;;;3.65;1.45;;;24.00;99.90;;;;;;4380992;32;22036;-65
2023/09/11 08:35:18;;;;;;;1.25;0.70;;;24.10;99.90;;;;;;4379002;32;20831;-64
2023/09/11 08:37:44;;;;;;;1.73;0.90;;;24.20;99.90;;;;;;4388787;32;20135;-65
2023/09/11 08:40:09;;;;;;;1.08;0.85;;;24.30;99.90;;;;;;4386535;32;20804;-65
2023/09/11 08:42:35;;;;;;;1.02;0.55;;;24.40;99.90;;;;;;4375800;32;20828;-64
2023/09/11 08:45:01;;;;;;;7.30;1.27;;;24.40;99.90;;;;;;4373978;32;20245;-65
2023/09/11 08:47:30;;;;;;;0.52;0.52;;;24.50;99.90;;;;;;4370574;32;20219;-64
2023/09/11 08:50:03;;;;;;;1.90;0.62;;;24.60;99.90;;;;;;4357671;32;20623;-65
2023/09/11 08:52:29;;;;;;;0.50;0.50;;;24.70;99.90;;;;;;4377518;32;20814;-65
2023/09/11 08:54:59;;;;;;;0.57;0.57;;;24.80;99.90;;;;;;4368400;32;21417;-65
2023/09/11 08:57:27;;;;;;;6.35;1.55;;;24.80;99.90;;;;;;4369215;32;20272;-64
2023/09/11 08:59:59;;;;;;;0.57;0.50;;;24.90;99.90;;;;;;4368318;32;20137;-64
2023/09/11 09:02:25;;;;;;;0.62;0.45;;;24.90;99.90;;;;;;4379412;32;20081;-64
2023/09/11 09:04:52;;;;;;;1.70;1.05;;;25.00;99.90;;;;;;4377565;32;20069;-66
2023/09/11 09:07:18;;;;;;;1.12;0.85;;;25.10;99.90;;;;;;4385924;32;20093;-63
2023/09/11 09:09:44;;;;;;;0.37;0.37;;;25.20;99.90;;;;;;4385422;32;20102;-64
2023/09/11 09:12:10;;;;;;;0.50;0.50;;;25.40;99.90;;;;;;4368318;32;20093;-65
2023/09/11 09:14:39;;;;;;;1.75;0.57;;;25.50;99.90;;;;;;4392717;32;20621;-65
2023/09/11 09:17:05;;;;;;;0.50;0.50;;;25.70;99.90;;;;;;4387062;32;20406;-65
2023/09/11 09:19:31;;;;;;;0.40;0.40;;;25.80;99.90;;;;;;4364306;32;20312;-65
2023/09/11 09:22:06;;;;;;;0.90;0.65;;;25.90;99.90;;;;;;4354813;32;21065;-65
2023/09/11 09:24:33;;;;;;;2.10;1.05;;;26.10;99.90;;;;;;4351784;32;20081;-65
2023/09/11 09:27:00;;;;;;;0.50;0.50;;;26.30;99.90;;;;;;4341239;32;20122;-64
2023/09/11 09:29:31;;;;;;;1.65;0.40;;;26.40;99.90;;;;;;4371236;32;20175;-64
2023/09/11 09:32:00;;;;;;;0.47;0.47;;;26.60;99.90;;;;;;4369527;32;20163;-64
2023/09/11 09:34:26;;;;;;;0.43;0.25;;;26.80;99.90;;;;;;4386368;32;20085;-63
2023/09/11 09:36:52;;;;;;;0.30;0.30;;;26.90;99.90;;;;;;4377896;32;20156;-64
2023/09/11 09:39:19;;;;;;;0.30;0.30;;;27.10;99.90;;;;;;4384036;32;21246;-64
2023/09/11 09:41:57;;;;;;;0.28;0.28;;;27.20;99.90;;;;;;4365636;32;20175;-64
2023/09/11 09:44:32;;;;;;;1.67;0.93;;;27.40;99.90;;;;;;4389540;32;20096;-65
2023/09/11 09:47:17;;;;;;;0.30;0.30;;;27.50;99.90;;;;;;4388436;32;20786;-65
2023/09/11 09:49:46;;;;;;;0.20;0.20;;;27.70;99.90;;;;;;4385183;32;20077;-65
2023/09/11 09:52:13;;;;;;;2.00;0.77;;;27.70;99.90;;;;;;4388311;32;20173;-65
2023/09/11 09:54:42;;;;;;;0.25;0.25;;;27.80;99.90;;;;;;4385448;32;20130;-64
2023/09/11 09:57:10;;;;;;;0.45;0.37;;;27.90;99.90;;;;;;4360339;32;21842;-64
2023/09/11 09:59:36;;;;;;;0.35;0.30;;;28.00;99.90;;;;;;4389945;32;20093;-64
2023/09/11 10:02:02;;;;;;;0.93;0.73;;;28.00;99.90;;;;;;4370602;32;20093;-65
2023/09/11 10:04:28;;;;;;;1.73;0.80;;;28.00;99.30;;;;;;4389189;32;20101;-65
2023/09/11 10:06:54;;;;;;;0.47;0.37;;;28.00;99.50;;;;;;4388517;32;21188;-65
2023/09/11 10:09:20;;;;;;;2.78;0.77;;;28.20;99.50;;;;;;4370035;32;20077;-66
2023/09/11 10:11:45;;;;;;;1.35;0.45;;;28.20;98.50;;;;;;4369443;32;20608;-64
2023/09/11 10:14:11;;;;;;;1.37;0.52;;;28.40;98.70;;;;;;4386017;32;20476;-66
2023/09/11 10:16:38;;;;;;;1.48;0.75;;;28.50;98.60;;;;;;4366085;32;21272;-65
2023/09/11 10:19:04;;;;;;;0.22;0.20;;;28.70;98.30;;;;;;4371443;32;20136;-65
2023/09/11 10:21:31;;;;;;;0.45;0.43;;;28.80;98.10;;;;;;4370220;32;20121;-65
2023/09/11 10:23:56;;;;;;;0.65;0.65;;;28.90;98.40;;;;;;4375476;32;20077;-66
2023/09/11 10:26:27;;;;;;;0.93;0.60;;;29.00;98.30;;;;;;4384986;32;20153;-64
2023/09/11 10:28:54;;;;;;;;;;;29.00;98.10;;;;;;4379258;32;22203;-66
2023/09/11 10:31:24;;;;;;;0.35;0.35;;;29.00;98.00;;;;;;4378371;32;20455;-65
2023/09/11 10:33:54;;;;;;;2.28;0.75;;;29.00;98.20;;;;;;4389084;32;20549;-65
2023/09/11 10:36:22;;;;;;;1.27;0.85;;;29.00;98.30;;;;;;4397467;32;20855;-65
2023/09/11 10:38:49;;;;;;;3.22;0.93;;;29.00;97.90;;;;;;4386036;32;20196;-65
2023/09/11 10:41:15;;;;;;;0.30;0.25;;;28.90;98.10;;;;;;4390776;32;20104;-66
2023/09/11 10:43:42;;;;;;;0.22;0.22;;;29.10;98.30;;;;;;4398656;32;20817;-64
2023/09/11 10:46:31;;;;;;;1.35;1.00;;;29.30;98.30;;;;;;4386996;32;20110;-65
2023/09/11 10:48:58;;;;;;;0.50;0.50;;;29.50;96.90;;;;;;4378576;32;20612;-66
2023/09/11 10:51:25;;;;;;;2.20;0.73;;;29.70;97.00;;;;;;4380838;32;20094;-65
2023/09/11 10:53:51;;;;;;;0.40;0.40;;;29.90;96.80;;;;;;4372543;32;20825;-64
2023/09/11 10:56:16;;;;;;;1.37;0.75;;;30.00;96.20;;;;;;4354411;32;21509;-66
2023/09/11 10:58:42;;;;;;;1.20;0.62;;;30.10;95.90;;;;;;4351396;32;21661;-64
2023/09/11 11:01:13;;;;;;;2.20;0.77;;;30.20;95.70;;;;;;4368097;32;20086;-64
2023/09/11 11:03:40;;;;;;;3.17;0.65;;;30.30;94.60;;;;;;4380833;32;20097;-65
2023/09/11 11:06:10;;;;;;;2.85;0.80;;;30.40;94.50;;;;;;4388116;32;20885;-64
2023/09/11 11:08:36;;;;;;;1.55;1.08;;;30.50;94.50;;;;;;4380968;32;20474;-65
2023/09/11 11:11:02;;;;;;;3.30;1.00;;;30.40;94.00;;;;;;4383165;32;20408;-64
2023/09/11 11:13:29;;;;;;;2.90;1.37;;;30.50;93.40;;;;;;4371390;32;20186;-65
2023/09/11 11:16:15;;;;;;;0.65;0.65;;;30.80;92.70;;;;;;4380599;32;20122;-65
2023/09/11 11:18:42;;;;;;;7.28;1.00;;;30.90;92.70;;;;;;4375051;32;20114;-65
2023/09/11 11:21:09;;;;;;;1.60;0.52;;;31.10;92.40;;;;;;4376475;32;20147;-64
2023/09/11 11:23:52;;;;;;;0.30;0.30;;;31.30;92.40;;;;;;4383706;32;20076;-65
2023/09/11 11:26:17;;;;;;;9.48;2.67;;;31.40;92.90;;;;;;4378035;32;20650;-63
2023/09/11 11:28:45;;;;;;;1.42;0.98;;;31.40;92.40;;;;;;4366166;32;20086;-65
2023/09/11 11:31:18;;;;;;;1.62;1.15;;;31.70;91.00;;;;;;4373857;32;20106;-64
2023/09/11 11:33:46;;;;;;;1.85;0.98;;;32.00;90.30;;;;;;4368793;32;20202;-64
2023/09/11 11:36:12;;;;;;;0.80;0.80;;;32.20;90.40;;;;;;4365051;32;20164;-64
2023/09/11 11:38:38;;;;;;;1.08;0.85;;;32.60;89.20;;;;;;4367640;32;20122;-65
2023/09/11 11:41:08;;;;;;;1.27;0.93;;;32.40;88.50;;;;;;4382402;32;20077;-65
2023/09/11 11:43:34;;;;;;;1.50;1.03;;;32.40;87.70;;;;;;4361132;32;20085;-65
2023/09/11 11:45:59;;;;;;;3.37;1.42;;;32.50;87.00;;;;;;4364501;32;20174;-66
2023/09/11 11:48:27;;;;;;;0.50;0.50;;;32.30;84.20;;;;;;4340035;32;133582;-65
2023/09/11 11:50:54;;;;;;;2.87;1.98;;;32.40;83.10;;;;;;4382560;32;20090;-64
2023/09/11 11:53:21;;;;;;;1.50;0.93;;;32.70;83.20;;;;;;4374418;32;20205;-65
2023/09/11 11:55:48;;;;;;;2.58;0.98;;;33.00;80.90;;;;;;4383321;32;20444;-65
2023/09/11 11:58:15;;;;;;;1.98;1.17;;;33.20;82.30;;;;;;4367777;32;21492;-64
2023/09/11 12:00:54;;;;;;;1.33;0.70;;;33.50;81.20;;;;;;4369875;32;20674;-65
2023/09/11 12:03:19;;;;;;;0.37;0.37;;;33.80;81.60;;;;;;4384400;32;20117;-66
2023/09/11 12:05:45;;;;;;;0.45;0.45;;;34.30;81.70;;;;;;4377405;32;20564;-65
2023/09/11 12:08:12;;;;;;;1.17;0.77;;;34.50;82.30;;;;;;4376441;32;20144;-65
2023/09/11 12:10:44;;;;;;;0.73;0.70;;;34.80;81.80;;;;;;4388080;32;20105;-64
2023/09/11 12:13:12;;;;;;;1.08;0.90;;;34.70;81.10;;;;;;4376715;32;20101;-66
2023/09/11 12:15:37;;;;;;;2.15;1.05;;;34.70;79.70;;;;;;4400252;32;20587;-65
2023/09/11 12:18:05;;;;;;;0.77;0.75;;;34.50;81.10;;;;;;4389988;32;21181;-65
2023/09/11 12:20:30;;;;;;;0.98;0.30;;;34.90;80.50;;;;;;4360191;32;21981;-65
2023/09/11 12:22:59;;;;;;;0.30;0.30;;;35.10;79.30;;;;;;4393440;32;21579;-64
2023/09/11 12:25:25;;;;;;;0.47;0.43;;;34.90;80.00;;;;;;4386463;32;20270;-65
2023/09/11 12:27:52;;;;;;;2.58;1.20;;;34.90;79.60;;;;;;4366864;32;20738;-64
2023/09/11 12:30:18;;;;;;;0.65;0.65;;;35.40;80.10;;;;;;4383786;32;21129;-65
2023/09/11 12:32:45;;;;;;;0.85;0.60;;;35.20;79.60;;;;;;4367018;32;20403;-65
2023/09/11 12:35:10;;;;;;;2.47;1.05;;;35.70;79.80;;;;;;4363522;32;20366;-66
2023/09/11 12:37:39;;;;;;;0.50;0.50;;;36.00;76.10;;;;;;4375850;32;20556;-66
2023/09/11 12:40:08;;;;;;;4.62;1.40;;;35.70;76.90;;;;;;4379331;32;20114;-65
2023/09/11 12:42:35;;;;;;;;;;;35.70;76.20;;;;;;4388712;32;20581;-65
2023/09/11 12:45:01;;;;;;;1.00;0.62;;;36.20;74.70;;;;;;4394500;32;19965;-66
2023/09/11 12:47:27;;;;;;;0.73;0.57;;;36.20;74.30;;;;;;4403916;32;20353;-67